Time;durP1;ratioP1;P1;durP2;ratioP2;P2;SDS_P1;SDS_P2;PMS_P1;PMS_P2;Temp;Humidity;BMP_temperature;BMP_pressure;BME280_temperature;BME280_humidity;BME280_pressure;Samples;Min_cycle;Max_cycle;Signal;HPM_P1;HPM_P2
2023/03/07 00:00:59;;;;;;;4.13;3.78;;;16.40;40.40;;;;;;4942731;29;20203;-82
2023/03/07 00:03:27;;;;;;;3.50;3.00;;;16.40;40.30;;;;;;4957329;28;20202;-82
2023/03/07 00:06:01;;;;;;;4.55;3.45;;;16.40;40.40;;;;;;4956570;29;20281;-82
2023/03/07 00:08:28;;;;;;;3.70;3.40;;;16.30;40.40;;;;;;4957249;28;20191;-82
2023/03/07 00:11:03;;;;;;;3.65;3.35;;;16.30;40.50;;;;;;4942982;29;20195;-82
2023/03/07 00:13:31;;;;;;;3.67;3.38;;;16.30;40.50;;;;;;4957203;29;20191;-82
2023/03/07 00:16:03;;;;;;;3.45;3.15;;;16.30;40.50;;;;;;4957639;28;20202;-82
2023/03/07 00:18:31;;;;;;;4.10;3.50;;;16.30;40.50;;;;;;4959194;29;20242;-82
2023/03/07 00:20:59;;;;;;;3.85;3.42;;;16.20;40.50;;;;;;4961444;29;20207;-82
2023/03/07 00:23:26;;;;;;;3.25;2.95;;;16.20;40.60;;;;;;4957665;28;20215;-82
2023/03/07 00:25:58;;;;;;;3.63;3.33;;;16.20;40.80;;;;;;4957148;29;20225;-82
2023/03/07 00:28:26;;;;;;;3.40;3.10;;;16.20;40.60;;;;;;4957631;28;20233;-82
2023/03/07 00:30:53;;;;;;;3.75;3.40;;;16.10;40.60;;;;;;4958138;28;20202;-83
2023/03/07 00:33:20;;;;;;;4.15;3.75;;;16.10;40.70;;;;;;4942374;29;20199;-82
2023/03/07 00:35:56;;;;;;;3.72;3.42;;;16.10;40.80;;;;;;4958432;28;20203;-82
2023/03/07 00:38:23;;;;;;;3.25;2.95;;;16.10;40.70;;;;;;4958745;28;20218;-82
2023/03/07 00:40:57;;;;;;;3.70;3.40;;;16.10;40.80;;;;;;4958287;28;20214;-82
2023/03/07 00:43:24;;;;;;;3.60;3.28;;;16.00;40.80;;;;;;4958533;28;20621;-82
2023/03/07 00:45:51;;;;;;;4.43;3.60;;;16.00;40.80;;;;;;4957828;28;20195;-82
2023/03/07 00:48:19;;;;;;;3.70;3.40;;;16.00;40.90;;;;;;4958789;28;20202;-82
2023/03/07 00:50:46;;;;;;;3.60;3.30;;;16.00;40.80;;;;;;4957603;28;20282;-83
2023/03/07 00:53:17;;;;;;;3.70;3.40;;;16.00;41.00;;;;;;4958057;29;20195;-83
2023/03/07 00:55:53;;;;;;;4.25;3.85;;;16.00;40.90;;;;;;4959119;28;20224;-83
2023/03/07 00:58:21;;;;;;;4.30;3.85;;;15.90;40.90;;;;;;4957755;28;20256;-83
2023/03/07 01:00:50;;;;;;;4.00;3.60;;;15.90;40.90;;;;;;4957731;28;20689;-83
2023/03/07 01:03:18;;;;;;;3.78;3.47;;;15.90;40.90;;;;;;4958377;29;20195;-82
2023/03/07 01:05:46;;;;;;;4.20;3.80;;;15.90;41.00;;;;;;4958425;29;20203;-82
2023/03/07 01:08:13;;;;;;;3.53;3.22;;;15.90;41.00;;;;;;4957980;28;20230;-82
2023/03/07 01:10:42;;;;;;;3.88;3.58;;;15.90;40.80;;;;;;4957232;29;20277;-82
2023/03/07 01:13:10;;;;;;;3.60;3.30;;;15.90;40.90;;;;;;4956156;29;20199;-82
2023/03/07 01:15:37;;;;;;;3.60;3.30;;;15.80;40.90;;;;;;4955844;29;20289;-81
2023/03/07 01:18:04;;;;;;;4.10;3.70;;;15.80;40.90;;;;;;4957026;29;20225;-81
2023/03/07 01:20:32;;;;;;;4.03;3.60;;;15.80;40.80;;;;;;4957141;29;20194;-81
2023/03/07 01:22:59;;;;;;;4.22;3.67;;;15.80;40.90;;;;;;4941441;29;20212;-81
2023/03/07 01:25:27;;;;;;;4.15;3.75;;;15.80;40.80;;;;;;4957252;29;20310;-81
2023/03/07 01:27:56;;;;;;;3.75;3.35;;;15.80;40.80;;;;;;4940440;29;20219;-81
2023/03/07 01:30:26;;;;;;;4.88;3.90;;;15.80;40.90;;;;;;4957544;28;20270;-81
2023/03/07 01:32:57;;;;;;;3.63;3.33;;;15.80;40.80;;;;;;4957346;28;20201;-81
2023/03/07 01:35:25;;;;;;;4.30;3.90;;;15.80;40.80;;;;;;4976801;23;20226;-81
2023/03/07 01:37:55;;;;;;;4.22;3.88;;;15.70;40.80;;;;;;4967132;28;20234;-81
2023/03/07 01:40:23;;;;;;;4.50;3.47;;;15.70;40.80;;;;;;4936758;29;20277;-81
2023/03/07 01:42:53;;;;;;;4.00;3.60;;;15.70;40.70;;;;;;4937040;29;20203;-81
2023/03/07 01:46:00;;;;;;;3.45;3.15;;;15.70;40.70;;;;;;4937229;29;20196;-81
2023/03/07 01:48:29;;;;;;;3.67;3.38;;;15.70;40.70;;;;;;4937974;29;20206;-81
2023/03/07 01:50:57;;;;;;;4.53;3.92;;;15.70;40.70;;;;;;4968739;28;20210;-81
2023/03/07 01:53:24;;;;;;;3.58;3.28;;;15.70;40.70;;;;;;4921233;29;20206;-81
2023/03/07 01:55:52;;;;;;;3.83;3.42;;;15.70;40.90;;;;;;4968890;28;20574;-81
2023/03/07 01:58:19;;;;;;;3.83;3.42;;;15.70;40.80;;;;;;4936832;29;20203;-81
2023/03/07 02:00:46;;;;;;;3.97;3.58;;;15.60;40.50;;;;;;4937358;29;20662;-81
2023/03/07 02:03:17;;;;;;;3.85;3.53;;;15.60;40.60;;;;;;4937880;29;20208;-81
2023/03/07 02:05:49;;;;;;;4.05;3.65;;;15.70;40.70;;;;;;4955422;23;20203;-78
2023/03/07 02:08:17;;;;;;;3.90;3.60;;;15.60;40.60;;;;;;4920642;29;20215;-79
2023/03/07 02:10:44;;;;;;;3.70;3.33;;;15.70;40.60;;;;;;4920275;29;20251;-79
2023/03/07 02:13:11;;;;;;;3.80;3.38;;;15.70;40.70;;;;;;4920270;29;20203;-79
2023/03/07 02:15:39;;;;;;;3.72;3.42;;;15.70;40.80;;;;;;4920008;29;20291;-79
2023/03/07 02:18:06;;;;;;;3.63;3.33;;;15.60;40.70;;;;;;5042617;23;20235;-81
2023/03/07 02:20:38;;;;;;;3.75;3.35;;;15.60;40.70;;;;;;4937003;29;20275;-81
2023/03/07 02:23:13;;;;;;;3.75;3.45;;;15.60;40.70;;;;;;4922263;29;20192;-81
2023/03/07 02:25:43;;;;;;;3.33;3.03;;;15.60;40.70;;;;;;4936840;29;20200;-81
2023/03/07 02:28:13;;;;;;;3.58;3.28;;;15.60;40.80;;;;;;4949354;29;20235;-81
2023/03/07 02:30:53;;;;;;;4.25;3.80;;;15.60;40.60;;;;;;4933207;29;20677;-81
2023/03/07 02:33:23;;;;;;;4.00;3.58;;;15.60;40.80;;;;;;4934279;29;20206;-81
2023/03/07 02:35:56;;;;;;;3.30;3.00;;;15.60;40.80;;;;;;4933134;29;20567;-81
2023/03/07 02:38:23;;;;;;;3.22;3.00;;;15.60;40.80;;;;;;4936806;29;20225;-81
2023/03/07 02:40:50;;;;;;;3.78;3.47;;;15.50;40.70;;;;;;4961591;29;20202;-82
2023/03/07 02:43:19;;;;;;;3.50;3.20;;;15.60;40.70;;;;;;4948119;29;20291;-81
2023/03/07 02:45:46;;;;;;;3.95;3.65;;;15.50;40.70;;;;;;4947699;29;20648;-81
2023/03/07 02:48:13;;;;;;;3.95;3.55;;;15.50;40.70;;;;;;5093200;23;20265;-79
2023/03/07 02:50:40;;;;;;;3.67;3.38;;;15.50;40.70;;;;;;4965712;29;20186;-79
2023/03/07 02:53:08;;;;;;;3.95;3.58;;;15.50;40.80;;;;;;4927057;29;20551;-79
2023/03/07 02:55:35;;;;;;;4.22;3.35;;;15.50;40.80;;;;;;4942271;29;20199;-79
2023/03/07 02:58:05;;;;;;;3.90;3.58;;;15.50;40.80;;;;;;4942234;29;20219;-79
2023/03/07 03:00:34;;;;;;;3.20;2.90;;;15.50;40.90;;;;;;4942039;29;20226;-79
2023/03/07 03:03:01;;;;;;;4.40;3.70;;;15.50;40.90;;;;;;4942178;29;20214;-79
2023/03/07 03:05:28;;;;;;;3.50;3.20;;;15.40;40.70;;;;;;4942307;29;20641;-79
2023/03/07 03:07:56;;;;;;;3.50;3.20;;;15.50;40.90;;;;;;4959135;28;20223;-79
2023/03/07 03:10:23;;;;;;;3.25;3.00;;;15.50;41.00;;;;;;4943509;29;20194;-79
2023/03/07 03:12:51;;;;;;;3.65;3.35;;;15.50;40.90;;;;;;4944898;29;20199;-82
2023/03/07 03:15:18;;;;;;;3.72;3.42;;;15.50;40.90;;;;;;4944498;29;20198;-82
2023/03/07 03:17:47;;;;;;;3.90;3.60;;;15.50;40.90;;;;;;4944249;29;20249;-82
2023/03/07 03:20:15;;;;;;;3.80;3.35;;;15.40;40.80;;;;;;4943200;29;20716;-82
2023/03/07 03:22:43;;;;;;;4.05;3.65;;;15.50;41.60;;;;;;4943509;29;20211;-82
2023/03/07 03:25:11;;;;;;;3.63;3.33;;;15.50;40.90;;;;;;4944462;29;20230;-82
2023/03/07 03:27:39;;;;;;;4.78;3.70;;;15.50;40.90;;;;;;4943197;29;20619;-81
2023/03/07 03:30:08;;;;;;;3.72;3.42;;;15.40;40.90;;;;;;4944440;29;20218;-81
2023/03/07 03:32:37;;;;;;;3.90;3.50;;;15.40;40.90;;;;;;4942918;29;20201;-81
2023/03/07 03:35:06;;;;;;;3.92;3.50;;;15.30;40.70;;;;;;4943174;29;20201;-81
2023/03/07 03:37:33;;;;;;;4.20;3.80;;;15.40;40.90;;;;;;4942414;29;20293;-81
2023/03/07 03:40:05;;;;;;;5.03;4.07;;;15.40;40.80;;;;;;4942778;29;20219;-81
2023/03/07 03:42:33;;;;;;;3.95;3.53;;;15.40;40.90;;;;;;4944401;29;20230;-81
2023/03/07 03:45:01;;;;;;;3.95;3.63;;;15.40;41.10;;;;;;4942770;29;20199;-81
2023/03/07 03:47:29;;;;;;;4.30;3.65;;;15.30;40.90;;;;;;4941963;29;20222;-81
2023/03/07 03:49:56;;;;;;;3.85;3.45;;;15.30;40.70;;;;;;4941014;29;20635;-81
2023/03/07 03:52:25;;;;;;;3.60;3.30;;;15.30;41.00;;;;;;4941383;29;20203;-81
2023/03/07 03:54:52;;;;;;;4.10;3.70;;;15.30;40.90;;;;;;4941756;29;20206;-81
2023/03/07 03:57:20;;;;;;;3.40;3.10;;;15.30;40.80;;;;;;4957932;28;20206;-81
2023/03/07 03:59:46;;;;;;;4.63;4.22;;;15.30;40.80;;;;;;4958047;29;20613;-81
2023/03/07 04:02:15;;;;;;;3.65;3.35;;;15.30;40.90;;;;;;4941033;29;20199;-81
2023/03/07 04:04:43;;;;;;;4.28;3.88;;;15.30;40.80;;;;;;4940707;29;20218;-81
2023/03/07 04:07:11;;;;;;;3.97;3.58;;;15.30;40.90;;;;;;4940606;29;20226;-81
2023/03/07 04:09:40;;;;;;;4.00;3.60;;;15.30;40.90;;;;;;4940496;29;20249;-81
2023/03/07 04:12:08;;;;;;;4.32;3.92;;;15.30;40.90;;;;;;4940400;29;20249;-81
2023/03/07 04:14:35;;;;;;;4.53;3.92;;;15.30;41.10;;;;;;4940430;29;20222;-81
2023/03/07 04:17:02;;;;;;;5.18;4.30;;;15.30;41.10;;;;;;4940516;29;20221;-81
2023/03/07 04:19:29;;;;;;;6.72;4.38;;;15.30;41.10;;;;;;4940417;29;20230;-81
2023/03/07 04:21:58;;;;;;;4.93;4.43;;;15.30;41.00;;;;;;4940358;29;20201;-81
2023/03/07 04:24:25;;;;;;;4.85;4.35;;;15.30;40.90;;;;;;4924542;29;20270;-81
2023/03/07 04:26:55;;;;;;;5.20;4.43;;;15.30;40.70;;;;;;4924756;29;20250;-81
2023/03/07 04:29:22;;;;;;;4.32;3.92;;;15.30;40.80;;;;;;4924589;29;20199;-81
2023/03/07 04:31:54;;;;;;;4.80;4.35;;;15.30;40.90;;;;;;4940344;29;20260;-82
2023/03/07 04:34:22;;;;;;;4.68;4.18;;;15.30;40.90;;;;;;4940448;29;20195;-82
2023/03/07 04:36:49;;;;;;;5.75;4.57;;;15.30;40.80;;;;;;4940518;29;20226;-82
2023/03/07 04:39:16;;;;;;;4.90;4.40;;;15.30;40.80;;;;;;4941177;29;20202;-82
2023/03/07 04:41:44;;;;;;;4.90;4.40;;;15.40;40.90;;;;;;4942318;29;20202;-82
2023/03/07 04:44:19;;;;;;;5.13;4.63;;;15.40;40.70;;;;;;4940733;29;20214;-82
2023/03/07 04:46:47;;;;;;;4.55;4.15;;;15.40;40.60;;;;;;4940308;29;20219;-82
2023/03/07 04:49:14;;;;;;;5.20;4.70;;;15.40;40.70;;;;;;4924864;29;20206;-82
2023/03/07 04:51:41;;;;;;;5.15;4.65;;;15.40;40.50;;;;;;4941151;29;20623;-82
2023/03/07 04:54:08;;;;;;;5.55;4.40;;;15.40;40.50;;;;;;4939980;29;20602;-82
2023/03/07 04:56:36;;;;;;;3.65;3.35;;;15.40;40.50;;;;;;4940018;29;20219;-82
2023/03/07 04:59:03;;;;;;;4.47;4.07;;;15.50;40.60;;;;;;4941593;29;20254;-83
2023/03/07 05:01:32;;;;;;;5.63;4.40;;;15.50;40.60;;;;;;4944205;29;20225;-83
2023/03/07 05:03:59;;;;;;;4.85;4.45;;;15.50;40.60;;;;;;4943724;29;20226;-82
2023/03/07 05:06:27;;;;;;;4.50;4.10;;;15.50;40.50;;;;;;4943076;29;20238;-82
2023/03/07 05:08:54;;;;;;;4.05;3.65;;;15.50;40.50;;;;;;4943896;29;20213;-82
2023/03/07 05:11:21;;;;;;;3.80;3.50;;;15.50;40.50;;;;;;4943355;29;20203;-82
2023/03/07 05:13:50;;;;;;;3.90;3.60;;;15.50;40.50;;;;;;4942278;29;20285;-81
2023/03/07 05:16:20;;;;;;;4.13;3.65;;;15.50;40.70;;;;;;4939217;29;20218;-81
2023/03/07 05:18:49;;;;;;;4.05;3.75;;;15.50;40.50;;;;;;4939592;29;20202;-81
2023/03/07 05:21:17;;;;;;;3.42;3.13;;;15.50;40.20;;;;;;4939935;29;20215;-81
2023/03/07 05:23:44;;;;;;;4.50;4.10;;;15.50;40.30;;;;;;4939125;29;20677;-81
2023/03/07 05:26:12;;;;;;;4.47;3.80;;;15.60;40.30;;;;;;4923617;29;20218;-81
2023/03/07 05:28:40;;;;;;;3.83;3.53;;;15.60;40.20;;;;;;4939077;29;20199;-81
2023/03/07 05:31:07;;;;;;;4.40;4.00;;;15.60;40.30;;;;;;4939504;29;20289;-81
2023/03/07 05:33:35;;;;;;;4.03;3.63;;;15.60;40.10;;;;;;4939592;29;20209;-81
2023/03/07 05:36:04;;;;;;;4.10;3.70;;;15.60;40.10;;;;;;4939470;28;20202;-81
2023/03/07 05:38:32;;;;;;;4.60;3.67;;;15.60;40.00;;;;;;4939310;29;20201;-81
2023/03/07 05:41:00;;;;;;;4.45;3.75;;;15.60;40.10;;;;;;4939913;29;20575;-81
2023/03/07 05:43:26;;;;;;;3.38;3.08;;;15.70;40.30;;;;;;4938890;29;20213;-81
2023/03/07 05:45:54;;;;;;;3.70;3.40;;;15.60;40.00;;;;;;4939181;28;20199;-81
2023/03/07 05:48:23;;;;;;;3.78;3.47;;;15.60;40.00;;;;;;4938895;29;20210;-81
2023/03/07 05:50:50;;;;;;;4.05;3.65;;;15.70;40.10;;;;;;4939202;29;20563;-81
2023/03/07 05:53:20;;;;;;;3.50;3.20;;;15.70;40.20;;;;;;4939007;29;20195;-81
2023/03/07 05:55:48;;;;;;;3.58;3.28;;;15.70;40.20;;;;;;4939913;28;20205;-80
2023/03/07 05:58:17;;;;;;;3.88;3.47;;;15.70;40.30;;;;;;4924257;29;20202;-80
2023/03/07 06:00:46;;;;;;;3.60;3.30;;;15.70;40.10;;;;;;4940220;29;20215;-82
2023/03/07 06:03:14;;;;;;;4.35;3.95;;;15.70;40.00;;;;;;4939846;29;20199;-82
2023/03/07 06:05:41;;;;;;;4.38;3.97;;;15.70;39.60;;;;;;4923680;29;20270;-81
2023/03/07 06:08:10;;;;;;;4.13;3.70;;;15.80;39.90;;;;;;4939832;29;20225;-81
2023/03/07 06:10:39;;;;;;;3.90;3.60;;;15.80;39.70;;;;;;4924175;29;20664;-81
2023/03/07 06:13:12;;;;;;;4.28;3.88;;;15.80;39.50;;;;;;4940996;29;20203;-81
2023/03/07 06:15:39;;;;;;;4.18;3.78;;;15.80;39.70;;;;;;4943740;29;20192;-81
2023/03/07 06:18:07;;;;;;;4.30;3.90;;;15.80;39.90;;;;;;4943707;29;20269;-81
2023/03/07 06:20:34;;;;;;;3.92;3.33;;;15.90;39.70;;;;;;4943892;29;20681;-82
2023/03/07 06:23:01;;;;;;;4.30;3.90;;;15.90;39.70;;;;;;4943630;29;20253;-82
2023/03/07 06:25:29;;;;;;;4.50;3.85;;;15.80;39.70;;;;;;4942589;29;20202;-82
2023/03/07 06:28:00;;;;;;;4.63;3.80;;;15.90;40.00;;;;;;4942613;29;20309;-82
2023/03/07 06:30:28;;;;;;;3.58;3.28;;;15.90;39.70;;;;;;4942864;29;20541;-79
2023/03/07 06:32:56;;;;;;;4.15;3.80;;;15.90;39.60;;;;;;4943098;29;20653;-79
2023/03/07 06:35:23;;;;;;;3.60;3.30;;;16.00;39.60;;;;;;4943010;29;20285;-79
2023/03/07 06:37:51;;;;;;;5.03;3.72;;;16.00;39.60;;;;;;4942515;29;20225;-79
2023/03/07 06:40:19;;;;;;;4.25;3.55;;;16.00;39.50;;;;;;4943024;29;20229;-79
2023/03/07 06:42:46;;;;;;;4.22;3.83;;;16.00;40.50;;;;;;4942962;29;20199;-79
2023/03/07 06:45:15;;;;;;;3.97;3.58;;;16.00;39.70;;;;;;4962989;23;20284;-82
2023/03/07 06:47:42;;;;;;;4.72;3.72;;;16.00;39.30;;;;;;4965095;28;20221;-82
2023/03/07 06:50:11;;;;;;;4.00;3.60;;;16.00;39.50;;;;;;4963604;28;20194;-82
2023/03/07 06:52:40;;;;;;;3.75;2.97;;;16.00;39.60;;;;;;4980811;28;20198;-83
2023/03/07 06:55:08;;;;;;;4.00;3.47;;;16.10;40.00;;;;;;4963824;28;20240;-82
2023/03/07 06:57:37;;;;;;;3.03;2.67;;;16.10;40.00;;;;;;4964396;28;20218;-82
2023/03/07 07:00:06;;;;;;;3.22;2.92;;;16.10;40.00;;;;;;4962892;28;20194;-82
2023/03/07 07:02:35;;;;;;;3.03;2.75;;;16.10;40.10;;;;;;4930820;28;20221;-82
2023/03/07 07:05:02;;;;;;;3.70;3.40;;;16.10;40.50;;;;;;4947034;28;20322;-82
2023/03/07 07:07:30;;;;;;;4.00;3.55;;;16.10;40.50;;;;;;4962315;28;20214;-82
2023/03/07 07:09:58;;;;;;;3.88;3.30;;;16.20;40.50;;;;;;4962572;28;20190;-82
2023/03/07 07:12:25;;;;;;;3.70;3.40;;;16.20;39.90;;;;;;4963265;28;20198;-81
2023/03/07 07:14:52;;;;;;;4.72;3.65;;;16.20;40.00;;;;;;4961863;28;20202;-83
2023/03/07 07:17:19;;;;;;;3.65;3.35;;;16.20;39.50;;;;;;4963245;28;20226;-82
2023/03/07 07:19:49;;;;;;;3.83;3.00;;;16.20;39.50;;;;;;4964283;28;20198;-83
2023/03/07 07:22:18;;;;;;;3.80;3.50;;;16.30;39.60;;;;;;4963952;28;20214;-82
2023/03/07 07:24:45;;;;;;;4.03;3.63;;;16.30;39.40;;;;;;4946682;28;20253;-82
2023/03/07 07:27:13;;;;;;;3.83;3.40;;;16.30;39.20;;;;;;4963883;28;20218;-81
2023/03/07 07:29:40;;;;;;;3.88;3.58;;;16.40;38.90;;;;;;4962402;28;20222;-81
2023/03/07 07:32:09;;;;;;;3.95;3.60;;;16.40;38.70;;;;;;4962335;28;20194;-81
2023/03/07 07:34:36;;;;;;;3.63;3.33;;;16.40;38.80;;;;;;4962566;28;20198;-81
2023/03/07 07:37:05;;;;;;;3.42;3.13;;;16.50;38.90;;;;;;4962135;28;20222;-81
2023/03/07 07:39:32;;;;;;;3.50;3.20;;;16.40;38.60;;;;;;4962573;28;20653;-81
2023/03/07 07:42:02;;;;;;;3.95;3.55;;;16.50;38.50;;;;;;4948196;28;20372;-81
2023/03/07 07:44:37;;;;;;;3.65;3.33;;;16.50;38.50;;;;;;4964757;28;20197;-82
2023/03/07 07:47:09;;;;;;;4.18;3.78;;;16.60;38.60;;;;;;4963510;28;20700;-82
2023/03/07 07:49:37;;;;;;;5.35;4.07;;;16.70;38.40;;;;;;4963285;28;20202;-82
2023/03/07 07:52:06;;;;;;;4.45;3.20;;;16.70;38.60;;;;;;4963345;28;20205;-80
2023/03/07 07:54:38;;;;;;;3.67;3.35;;;16.80;38.20;;;;;;4962487;28;20297;-82
2023/03/07 07:57:07;;;;;;;3.90;3.30;;;16.80;38.00;;;;;;4972297;28;20297;-82
2023/03/07 07:59:38;;;;;;;3.85;3.47;;;16.80;38.00;;;;;;4975062;28;20531;-83
2023/03/07 08:02:09;;;;;;;4.97;3.70;;;16.90;37.80;;;;;;4972840;28;20218;-82
2023/03/07 08:04:36;;;;;;;3.63;3.33;;;16.90;37.70;;;;;;4971040;28;20246;-81
2023/03/07 08:07:05;;;;;;;3.90;3.60;;;16.90;38.30;;;;;;4967152;28;20229;-80
2023/03/07 08:09:33;;;;;;;4.13;3.72;;;17.00;37.60;;;;;;4950409;28;20614;-81
2023/03/07 08:12:03;;;;;;;4.82;3.50;;;17.00;37.70;;;;;;4964657;28;20198;-81
2023/03/07 08:14:33;;;;;;;3.65;3.35;;;17.10;37.60;;;;;;4962006;28;20202;-82
2023/03/07 08:17:00;;;;;;;3.60;3.20;;;17.20;37.50;;;;;;4961552;28;20274;-82
2023/03/07 08:19:27;;;;;;;4.60;3.20;;;17.20;37.30;;;;;;4961893;28;20194;-79
2023/03/07 08:21:56;;;;;;;3.78;3.38;;;17.30;37.60;;;;;;4978838;28;20214;-81
2023/03/07 08:24:24;;;;;;;3.15;2.85;;;17.30;37.10;;;;;;4960733;28;20660;-81
2023/03/07 08:26:51;;;;;;;3.60;3.05;;;17.40;37.20;;;;;;4945201;28;20304;-81
2023/03/07 08:29:18;;;;;;;4.00;3.17;;;17.50;37.10;;;;;;4960642;28;20252;-81
2023/03/07 08:31:50;;;;;;;3.50;3.20;;;17.50;36.90;;;;;;4960353;28;20212;-81
2023/03/07 08:34:17;;;;;;;4.05;3.17;;;17.60;36.90;;;;;;4960503;28;20633;-81
2023/03/07 08:36:44;;;;;;;3.88;3.08;;;17.70;37.10;;;;;;4960148;28;20225;-80
2023/03/07 08:39:12;;;;;;;3.60;3.30;;;17.90;36.90;;;;;;4960553;28;20273;-80
2023/03/07 08:41:40;;;;;;;4.72;3.15;;;17.90;36.60;;;;;;4959326;28;20222;-80
2023/03/07 08:44:07;;;;;;;2.90;2.70;;;18.00;36.40;;;;;;4960674;28;20710;-80
2023/03/07 08:46:34;;;;;;;4.95;3.20;;;18.10;36.80;;;;;;4965503;28;20226;-82
2023/03/07 08:49:02;;;;;;;3.40;3.10;;;18.20;36.00;;;;;;4981385;28;20205;-81
2023/03/07 08:51:29;;;;;;;3.67;3.38;;;18.20;35.90;;;;;;4962576;28;20194;-82
2023/03/07 08:54:02;;;;;;;3.63;3.33;;;18.30;36.40;;;;;;4962132;28;20261;-82
2023/03/07 08:56:29;;;;;;;3.40;3.10;;;18.40;35.90;;;;;;4960941;28;20664;-81
2023/03/07 08:58:58;;;;;;;3.58;3.28;;;18.50;35.90;;;;;;4979808;28;20205;-82
2023/03/07 09:01:26;;;;;;;2.85;2.63;;;18.50;35.70;;;;;;4960879;28;20229;-82
2023/03/07 09:03:54;;;;;;;4.25;3.30;;;18.60;35.60;;;;;;4965229;28;20194;-81
2023/03/07 09:06:21;;;;;;;3.80;3.13;;;18.60;35.50;;;;;;4969610;28;20249;-82
2023/03/07 09:08:52;;;;;;;3.03;2.72;;;18.60;35.70;;;;;;4973790;28;20205;-81
2023/03/07 09:11:21;;;;;;;3.42;3.10;;;18.70;35.60;;;;;;4972713;28;20289;-82
2023/03/07 09:13:53;;;;;;;3.70;3.00;;;18.70;35.60;;;;;;4968615;28;20218;-82
2023/03/07 09:16:23;;;;;;;2.85;2.55;;;18.70;35.10;;;;;;4966121;28;20249;-81
2023/03/07 09:18:52;;;;;;;3.60;2.83;;;18.70;35.10;;;;;;4981504;28;20282;-81
2023/03/07 09:21:19;;;;;;;3.10;2.80;;;18.70;35.30;;;;;;4968106;28;20218;-82
2023/03/07 09:23:47;;;;;;;2.72;2.53;;;18.80;35.40;;;;;;4966829;28;20202;-82
2023/03/07 09:26:14;;;;;;;4.60;2.60;;;18.90;35.70;;;;;;4966874;28;20230;-80
2023/03/07 09:28:41;;;;;;;2.80;2.60;;;19.00;35.60;;;;;;4966955;28;20205;-81
2023/03/07 09:31:11;;;;;;;3.58;3.00;;;19.10;35.20;;;;;;4967464;28;20202;-82
2023/03/07 09:33:40;;;;;;;2.38;2.17;;;19.20;35.00;;;;;;4966962;28;20202;-80
2023/03/07 09:36:11;;;;;;;2.80;2.55;;;19.30;35.20;;;;;;4965920;28;20202;-81
2023/03/07 09:38:39;;;;;;;2.53;2.33;;;19.30;34.90;;;;;;4965452;28;20210;-81
2023/03/07 09:41:10;;;;;;;1.70;1.60;;;19.30;34.90;;;;;;4980654;28;20269;-81
2023/03/07 09:43:41;;;;;;;2.50;2.30;;;19.30;35.20;;;;;;4965677;28;20708;-81
2023/03/07 09:46:32;;;;;;;3.00;2.60;;;19.30;35.00;;;;;;4952285;28;20236;-81
2023/03/07 09:49:07;;;;;;;2.55;2.20;;;19.30;34.80;;;;;;4963827;28;20198;-81
2023/03/07 09:51:37;;;;;;;2.35;2.13;;;19.20;34.90;;;;;;4965563;28;20228;-80
2023/03/07 09:54:06;;;;;;;3.13;2.70;;;19.20;35.20;;;;;;4964635;28;20217;-82
2023/03/07 09:56:40;;;;;;;2.60;2.40;;;19.20;34.20;;;;;;4969731;28;20249;-82
2023/03/07 09:59:13;;;;;;;2.40;2.20;;;19.10;34.50;;;;;;4970219;28;20194;-82
2023/03/07 10:01:40;;;;;;;2.65;2.30;;;19.10;34.30;;;;;;4969515;28;20673;-81
2023/03/07 10:04:14;;;;;;;2.42;2.20;;;19.00;34.20;;;;;;4968046;28;20204;-82
2023/03/07 10:06:43;;;;;;;3.33;2.40;;;19.00;34.20;;;;;;4965994;28;20241;-81
2023/03/07 10:09:15;;;;;;;2.85;2.63;;;18.90;34.50;;;;;;4965460;28;20194;-82
2023/03/07 10:11:57;;;;;;;2.70;2.40;;;19.00;34.70;;;;;;4964705;28;20198;-82
2023/03/07 10:14:38;;;;;;;2.83;2.33;;;18.90;34.60;;;;;;4962577;28;20190;-81
2023/03/07 10:17:07;;;;;;;2.50;2.30;;;18.80;34.40;;;;;;4964964;28;20221;-81
2023/03/07 10:19:39;;;;;;;2.67;2.45;;;18.90;34.70;;;;;;4965100;28;20202;-82
2023/03/07 10:22:11;;;;;;;2.63;2.42;;;18.80;34.60;;;;;;4965316;28;20214;-82
2023/03/07 10:24:46;;;;;;;2.75;2.55;;;18.80;34.40;;;;;;4964590;28;20225;-81
2023/03/07 10:27:14;;;;;;;2.70;2.50;;;18.80;34.40;;;;;;4965041;28;20602;-81
2023/03/07 10:29:45;;;;;;;3.00;2.70;;;18.70;34.60;;;;;;4963598;28;20202;-81
2023/03/07 10:32:21;;;;;;;2.97;2.70;;;18.80;34.40;;;;;;4961990;28;20194;-81
2023/03/07 10:34:54;;;;;;;2.80;2.60;;;18.70;34.40;;;;;;4963409;28;20620;-82
2023/03/07 10:37:22;;;;;;;3.88;2.70;;;18.70;34.40;;;;;;4963111;28;20225;-81
2023/03/07 10:39:51;;;;;;;3.22;2.90;;;18.70;34.40;;;;;;4961928;28;20198;-82
2023/03/07 10:42:19;;;;;;;3.13;2.75;;;18.70;34.60;;;;;;4962157;28;20218;-82
2023/03/07 10:44:47;;;;;;;3.40;3.10;;;18.70;34.40;;;;;;4963468;28;20210;-81
2023/03/07 10:47:19;;;;;;;2.97;2.78;;;18.60;34.70;;;;;;4963227;28;20273;-81
2023/03/07 10:49:47;;;;;;;2.70;2.50;;;18.60;34.80;;;;;;4964390;28;20198;-81
2023/03/07 10:52:21;;;;;;;3.17;2.75;;;18.60;34.60;;;;;;4964306;28;20221;-81
2023/03/07 10:54:48;;;;;;;2.83;2.63;;;18.60;34.70;;;;;;4962679;28;20216;-81
2023/03/07 10:57:16;;;;;;;2.92;2.60;;;18.60;34.80;;;;;;4960362;28;20287;-81
2023/03/07 10:59:43;;;;;;;3.25;2.90;;;18.50;34.60;;;;;;4961898;28;20549;-81
2023/03/07 11:02:30;;;;;;;4.28;2.58;;;18.50;34.50;;;;;;4948301;28;20210;-81
2023/03/07 11:04:57;;;;;;;3.30;3.00;;;18.50;34.50;;;;;;4964835;28;20305;-82
2023/03/07 11:07:30;;;;;;;2.50;2.30;;;18.50;34.50;;;;;;4962785;28;20226;-82
2023/03/07 11:09:58;;;;;;;2.90;2.70;;;18.40;34.90;;;;;;4962261;28;20591;-82
2023/03/07 11:12:25;;;;;;;2.88;2.60;;;18.40;35.00;;;;;;4963852;28;20672;-80
2023/03/07 11:14:54;;;;;;;2.70;2.50;;;18.40;34.80;;;;;;4963123;28;20213;-81
2023/03/07 11:17:22;;;;;;;2.63;2.28;;;18.40;35.10;;;;;;4965217;28;20224;-81
2023/03/07 11:19:52;;;;;;;2.70;2.50;;;18.30;34.90;;;;;;4966873;28;20237;-81
2023/03/07 11:22:21;;;;;;;3.58;2.70;;;18.30;35.10;;;;;;4966132;28;20261;-81
2023/03/07 11:24:54;;;;;;;2.85;2.58;;;18.30;34.90;;;;;;4961910;28;20206;-81
2023/03/07 11:27:23;;;;;;;3.00;2.80;;;18.30;34.70;;;;;;4961379;28;20588;-81
2023/03/07 11:30:15;;;;;;;2.88;2.65;;;18.30;34.90;;;;;;4961514;28;20691;-81
2023/03/07 11:32:43;;;;;;;2.60;2.40;;;18.30;34.60;;;;;;4961356;28;20625;-81
2023/03/07 11:35:14;;;;;;;3.35;3.00;;;18.30;34.70;;;;;;4962038;28;20198;-80
2023/03/07 11:37:43;;;;;;;3.03;2.70;;;18.30;34.60;;;;;;4961709;28;20664;-80
2023/03/07 11:40:21;;;;;;;4.57;2.65;;;18.30;34.70;;;;;;4961637;28;20205;-81
2023/03/07 11:42:50;;;;;;;2.70;2.50;;;18.30;34.60;;;;;;4961330;28;20225;-81
2023/03/07 11:45:29;;;;;;;3.15;2.85;;;18.30;34.70;;;;;;4963612;28;20218;-81
2023/03/07 11:48:00;;;;;;;2.65;2.45;;;18.20;34.90;;;;;;4969902;28;20624;-81
2023/03/07 11:50:28;;;;;;;4.32;2.90;;;18.20;34.80;;;;;;4970190;28;20198;-81
2023/03/07 11:53:14;;;;;;;2.55;2.35;;;18.20;34.80;;;;;;4968244;28;20200;-81
2023/03/07 11:55:46;;;;;;;2.38;2.00;;;18.20;34.80;;;;;;4967548;28;20186;-81
2023/03/07 11:58:24;;;;;;;2.78;2.58;;;18.20;35.20;;;;;;4966962;28;20665;-79
2023/03/07 12:00:57;;;;;;;2.63;2.42;;;18.20;34.80;;;;;;4966977;28;20249;-79
2023/03/07 12:03:44;;;;;;;2.88;2.67;;;18.20;34.80;;;;;;4966490;28;20213;-79
2023/03/07 12:06:29;;;;;;;2.95;2.70;;;18.10;34.70;;;;;;4963969;28;20226;-81
2023/03/07 12:09:13;;;;;;;2.63;2.42;;;18.10;34.50;;;;;;4963293;28;20208;-82
2023/03/07 12:11:56;;;;;;;3.10;2.90;;;18.10;35.00;;;;;;4962264;28;20202;-81
2023/03/07 12:14:28;;;;;;;3.08;2.85;;;18.10;35.10;;;;;;4961863;28;20194;-81
2023/03/07 12:16:59;;;;;;;2.88;2.40;;;18.10;34.50;;;;;;4970919;28;20228;-81
2023/03/07 12:19:56;;;;;;;3.03;2.50;;;18.10;34.60;;;;;;4971862;28;20229;-81
2023/03/07 12:22:29;;;;;;;3.00;2.72;;;18.10;35.00;;;;;;4965501;28;20221;-81
2023/03/07 12:25:04;;;;;;;2.97;2.67;;;18.10;35.10;;;;;;4965094;28;20186;-81
2023/03/07 12:27:34;;;;;;;2.70;2.50;;;18.10;34.70;;;;;;4963713;28;20217;-81
2023/03/07 12:30:03;;;;;;;2.85;2.65;;;18.10;34.60;;;;;;4971336;28;20186;-81
2023/03/07 12:32:30;;;;;;;2.90;2.70;;;18.10;34.60;;;;;;4968442;28;20255;-81
2023/03/07 12:34:59;;;;;;;2.90;2.70;;;18.10;35.10;;;;;;4966913;28;20205;-82
2023/03/07 12:37:28;;;;;;;3.15;2.85;;;18.10;35.10;;;;;;4966320;28;20222;-81
2023/03/07 12:39:59;;;;;;;2.88;2.58;;;18.10;34.60;;;;;;4969647;28;20253;-82
2023/03/07 12:42:33;;;;;;;3.08;2.88;;;18.10;34.80;;;;;;4949771;28;20229;-81
2023/03/07 12:45:03;;;;;;;3.03;2.72;;;18.10;34.60;;;;;;4976369;23;20190;-81
2023/03/07 12:47:32;;;;;;;3.22;2.88;;;18.10;34.90;;;;;;4923019;29;20704;-81
2023/03/07 12:50:01;;;;;;;2.60;2.40;;;18.20;34.90;;;;;;4922327;29;20210;-81
2023/03/07 12:52:34;;;;;;;2.80;2.60;;;18.20;34.90;;;;;;4923689;29;20203;-81
2023/03/07 12:55:04;;;;;;;3.03;2.67;;;18.20;35.00;;;;;;4923617;29;20234;-81
2023/03/07 12:57:35;;;;;;;2.67;2.47;;;18.20;35.00;;;;;;4923519;29;20227;-81
2023/03/07 13:00:04;;;;;;;2.90;2.55;;;18.20;34.80;;;;;;4923073;29;20187;-81